KGCK

Garden City Regional Airport

Garden City, Kansas, USA
METAR KGCK 141654Z 32006KT 10SM CLR 03/M08 A3032 RMK AO2 SLP288 T00281083
Observed Flight Rules
Dec-14 @ 16:54 UTC (9 minutes ago) Visual Flight Rules
Wind Visibility Clouds
320° at 6 knots 10 miles
  • Clear skies
Temperatures Readings
Current 3°C / 37°F
Dewpoint -8°C / 18°F
Humidity 45%
Altimeter 30.32" Hg
Pressure 1028.8 hPa
Elevation 877
METAR KGCK 141654Z 32006KT 10SM CLR 03/M08 A3032 RMK AO2 SLP288 T00281083
Observed Flight Rules
Dec-14 @ 16:54 UTC
(9 minutes ago)
VFR
Wind Visibility
320° at 6 knots 10 miles
Clouds
  • Clear skies
Temperature Dewpoint
3°C / 37°F -8°C / 18°F
Humidity Altimeter Pressure
45% 30.32" Hg 1028.8 hPa